Time;durP1;ratioP1;P1;durP2;ratioP2;P2;SDS_P1;SDS_P2;PMS_P1;PMS_P2;Temp;Humidity;BMP_temperature;BMP_pressure;BME280_temperature;BME280_humidity;BME280_pressure;Samples;Min_cycle;Max_cycle;Signal;HPM_P1;HPM_P2
2022/05/08 00:01:35;;;;;;;12.95;6.50;;;;;;;11.49;76.57;102522.03;6156146;23;20041;-79
2022/05/08 00:04:01;;;;;;;13.10;6.20;;;;;;;11.37;77.07;102511.34;6156039;23;20014;-85
2022/05/08 00:06:26;;;;;;;14.02;7.50;;;;;;;12.10;77.20;102622.31;6155885;23;20017;-82
2022/05/08 00:19:16;;;;;;;12.43;7.47;;;;;;;10.41;77.90;102368.56;6155067;23;20020;-79
2022/05/08 00:48:26;;;;;;;17.80;8.43;;;;;;;10.51;79.66;102437.06;6165114;23;20100;-79
2022/05/08 00:51:08;;;;;;;13.75;8.70;;;;;;;11.62;79.30;102625.91;6155954;23;20017;-78
2022/05/08 00:53:56;;;;;;;16.85;8.93;;;;;;;11.67;79.13;102629.16;6155747;23;20089;-82
2022/05/08 00:57:07;;;;;;;15.07;9.38;;;;;;;11.62;78.92;102640.59;6156063;23;20001;-80
2022/05/08 01:02:59;;;;;;;14.00;9.27;;;;;;;10.97;78.97;102556.81;6154986;23;20024;-79
2022/05/08 01:05:44;;;;;;;12.90;9.23;;;;;;;9.96;79.02;102386.56;6156032;23;20017;-78
2022/05/08 01:08:26;;;;;;;14.23;9.80;;;;;;;11.47;79.21;102635.09;6156133;23;20009;-79
2022/05/08 01:11:00;;;;;;;13.55;9.30;;;;;;;10.47;79.13;102487.16;6149526;23;20056;-79
2022/05/08 01:13:25;;;;;;;15.32;9.75;;;;;;;11.39;78.95;102638.84;6156285;23;20336;-79
2022/05/08 01:15:51;;;;;;;15.43;9.45;;;;;;;11.36;79.73;102636.41;6155846;23;20005;-79
2022/05/08 01:18:17;;;;;;;15.93;10.48;;;;;;;11.32;79.60;102648.59;6155374;23;20009;-77
2022/05/08 01:20:45;;;;;;;16.50;10.15;;;;;;;11.08;79.43;102605.53;6155414;23;20094;-81
2022/05/08 01:23:11;;;;;;;16.10;10.23;;;;;;;10.94;79.77;102597.44;6153109;23;20009;-79
2022/05/08 01:26:04;;;;;;;16.58;10.35;;;;;;;11.12;80.05;102636.41;6155765;23;20092;-79
2022/05/08 01:28:30;;;;;;;22.05;10.23;;;;;;;11.08;80.07;102636.56;6145834;23;20009;-79
2022/05/08 01:30:56;;;;;;;19.05;10.55;;;;;;;10.90;79.87;102614.78;6156354;23;20109;-79
2022/05/08 01:33:22;;;;;;;16.80;10.25;;;;;;;11.03;79.96;102641.06;6155954;23;20012;-79
2022/05/08 01:35:49;;;;;;;15.68;9.98;;;;;;;10.91;80.38;102624.22;6155876;23;20327;-81
2022/05/08 01:38:16;;;;;;;18.23;10.90;;;;;;;10.87;80.34;102639.00;6155434;23;20454;-81
2022/05/08 01:40:45;;;;;;;15.65;10.07;;;;;;;10.95;80.44;102650.84;6155667;23;20005;-79
2022/05/08 01:43:12;;;;;;;13.85;9.90;;;;;;;10.96;80.24;102650.78;6155870;23;20006;-79
2022/05/08 01:45:38;;;;;;;16.00;10.25;;;;;;;10.82;80.26;102637.50;6155917;23;20063;-79
2022/05/08 01:48:22;;;;;;;20.42;10.88;;;;;;;10.85;80.63;102640.81;6155481;23;20094;-80
2022/05/08 01:50:50;;;;;;;16.40;10.82;;;;;;;10.94;80.92;102651.72;6155810;23;20319;-80
2022/05/08 01:53:16;;;;;;;17.77;10.82;;;;;;;10.69;80.70;102613.81;6155576;23;20017;-82
2022/05/08 01:55:42;;;;;;;17.73;10.30;;;;;;;10.89;80.85;102651.88;6155919;23;20136;-81
2022/05/08 01:58:07;;;;;;;16.98;11.38;;;;;;;10.94;80.55;102662.91;6155939;23;20029;-80
2022/05/08 02:00:32;;;;;;;19.52;11.30;;;;;;;10.69;80.58;102636.22;6155974;23;20361;-80
2022/05/08 02:03:00;;;;;;;16.45;10.60;;;;;;;10.77;80.84;102660.91;6155982;23;20328;-80
2022/05/08 02:05:28;;;;;;;16.83;11.48;;;;;;;10.71;81.15;102661.09;6155742;23;20073;-79
2022/05/08 02:07:54;;;;;;;18.80;11.60;;;;;;;10.49;81.42;102642.91;6155663;23;20012;-79
2022/05/08 02:10:19;;;;;;;16.17;10.70;;;;;;;10.72;81.84;102678.31;6155771;23;20005;-79
2022/05/08 02:12:45;;;;;;;20.00;10.90;;;;;;;10.25;81.29;102592.09;6155640;23;20005;-79
2022/05/08 02:15:12;;;;;;;14.25;9.98;;;;;;;10.74;81.28;102675.69;6155858;23;20088;-87
2022/05/08 02:20:16;;;;;;;17.25;10.57;;;;;;;9.29;80.66;102450.72;6244159;23;20032;-80
2022/05/08 02:22:51;;;;;;;20.00;11.38;;;;;;;10.10;81.11;102582.22;6245068;23;20008;-85
2022/05/08 02:25:17;;;;;;;17.63;10.77;;;;;;;10.05;80.92;102588.41;6246211;23;20007;-86
2022/05/08 02:27:51;;;;;;;16.60;11.20;;;;;;;10.10;81.16;102597.72;6245784;23;20004;-87
2022/05/08 02:32:53;;;;;;;17.10;10.77;;;;;;;10.57;81.38;102678.81;6166911;23;20363;-88
2022/05/08 02:35:22;;;;;;;18.45;11.30;;;;;;;10.26;81.39;102637.69;6157909;23;20048;-86
2022/05/08 02:37:50;;;;;;;19.75;11.05;;;;;;;10.31;81.46;102646.09;6126704;23;20010;-78
2022/05/08 02:40:16;;;;;;;18.17;10.90;;;;;;;10.59;81.34;102683.03;6157604;23;20446;-79
2022/05/08 02:42:42;;;;;;;18.85;11.40;;;;;;;10.63;81.04;102686.38;6157561;23;20006;-78
2022/05/08 02:45:09;;;;;;;18.58;10.40;;;;;;;10.38;80.75;102657.94;6157005;23;20070;-78
2022/05/08 02:47:35;;;;;;;18.83;11.43;;;;;;;10.54;80.99;102689.28;6157119;23;20029;-80
2022/05/08 02:50:00;;;;;;;17.67;10.23;;;;;;;10.47;80.77;102686.03;6157005;23;20040;-79
2022/05/08 02:52:26;;;;;;;20.45;10.80;;;;;;;10.21;80.69;102649.84;6157038;23;20036;-88
2022/05/08 02:54:51;;;;;;;20.17;10.35;;;;;;;10.18;80.38;102648.22;6156991;23;20032;-89
2022/05/08 03:00:05;;;;;;;21.77;10.90;;;;;;;10.33;80.36;102685.66;6157079;23;20021;-80
2022/05/08 03:02:32;;;;;;;21.02;9.55;;;;;;;10.06;79.80;102652.03;6157331;23;20013;-78
2022/05/08 03:04:57;;;;;;;18.73;9.93;;;;;;;10.13;79.87;102659.56;6157068;23;20001;-88
2022/05/08 03:15:09;;;;;;;19.35;8.98;;;;;;;9.89;79.64;102635.38;6165572;23;20037;-82
2022/05/08 03:17:46;;;;;;;20.15;9.95;;;;;;;8.96;79.24;102486.13;6157168;23;20006;-87
2022/05/08 03:39:45;;;;;;;22.30;6.70;;;;;;;10.02;76.50;102690.88;6158959;23;20463;-79
2022/05/08 03:42:31;;;;;;;22.80;7.28;;;;;;;9.94;75.66;102698.03;6101137;23;20348;-77
2022/05/08 03:45:02;;;;;;;19.98;6.88;;;;;;;8.55;75.52;102481.25;6127394;23;20324;-80
2022/05/08 03:54:05;;;;;;;21.83;7.55;;;;;;;8.50;75.63;102492.56;6156524;23;20392;-78
2022/05/08 03:57:02;;;;;;;21.52;6.68;;;;;;;9.83;75.91;102700.06;6156346;23;20001;-81
2022/05/08 03:59:27;;;;;;;18.80;6.28;;;;;;;9.65;76.21;102683.44;6130204;23;20008;-78
2022/05/08 04:01:54;;;;;;;22.92;7.60;;;;;;;9.75;76.25;102705.47;6156478;23;20025;-79
2022/05/08 04:04:20;;;;;;;19.83;6.70;;;;;;;9.57;76.26;102685.38;6156673;23;20025;-78
2022/05/08 04:06:46;;;;;;;23.20;7.40;;;;;;;9.36;75.85;102648.16;6156596;23;20412;-79
2022/05/08 04:09:11;;;;;;;24.23;6.63;;;;;;;9.57;76.22;102686.22;6156434;23;20036;-80
2022/05/08 04:11:36;;;;;;;25.92;6.95;;;;;;;9.71;76.04;102712.44;6156117;23;20041;-79
2022/05/08 04:14:02;;;;;;;20.58;7.13;;;;;;;9.47;76.43;102677.06;6156136;23;20321;-89
2022/05/08 05:21:45;;;;;;;24.10;5.57;;;;;;;9.75;74.25;102754.50;6128763;23;20095;-80
2022/05/08 05:24:12;;;;;;;25.65;6.55;;;;;;;9.72;74.68;102760.56;6068614;23;20346;-82
2022/05/08 05:26:38;;;;;;;21.38;7.05;;;;;;;9.78;74.67;102763.00;6066349;23;20460;-88
2022/05/08 05:29:03;;;;;;;20.15;5.72;;;;;;;9.72;73.47;102736.50;6068219;23;20002;-84
2022/05/08 05:31:32;;;;;;;21.95;6.35;;;;;;;9.90;72.72;102759.19;6068838;23;20015;-87
2022/05/08 05:33:57;;;;;;;22.08;6.10;;;;;;;9.55;72.75;102715.53;6069179;23;20002;-84
2022/05/08 05:36:24;;;;;;;20.52;5.03;;;;;;;9.87;72.86;102746.41;6066938;23;20007;-83
2022/05/08 05:38:49;;;;;;;24.50;5.85;;;;;;;9.70;72.62;102695.28;6068501;23;20003;-85
2022/05/08 05:41:15;;;;;;;23.50;6.18;;;;;;;10.27;72.06;102778.78;6068106;23;20003;-87
2022/05/08 05:43:40;;;;;;;21.25;6.35;;;;;;;9.87;70.21;102710.28;6068245;23;20051;-84
2022/05/08 05:48:52;;;;;;;23.70;5.85;;;;;;;10.37;70.79;102787.94;6068415;23;20022;-87
2022/05/08 05:51:17;;;;;;;22.50;5.45;;;;;;;10.25;70.26;102768.53;6068373;23;20011;-85
2022/05/08 05:53:42;;;;;;;18.00;5.72;;;;;;;10.44;70.17;102792.03;6068226;23;20382;-85
2022/05/08 05:56:09;;;;;;;22.80;5.43;;;;;;;10.55;69.55;102792.56;6068348;23;20034;-87
2022/05/08 05:58:35;;;;;;;18.50;4.80;;;;;;;9.96;69.71;102686.78;6067353;23;20010;-84
2022/05/08 06:01:00;;;;;;;21.10;5.13;;;;;;;10.52;68.48;102777.16;6067998;23;20006;-87
2022/05/08 06:03:25;;;;;;;20.02;5.85;;;;;;;10.43;68.96;102766.28;6066213;23;20003;-87
2022/05/08 06:05:51;;;;;;;21.60;5.30;;;;;;;10.63;68.26;102792.31;6067849;23;20003;-84
2022/05/08 06:08:16;;;;;;;19.23;5.22;;;;;;;10.78;68.29;102809.06;6067827;23;20002;-87
2022/05/08 06:10:42;;;;;;;27.05;5.47;;;;;;;10.85;67.87;102815.72;6069198;23;20011;-86
2022/05/08 06:13:07;;;;;;;15.70;4.18;;;;;;;10.64;67.97;102778.50;6069522;23;20418;-84
2022/05/08 06:15:33;;;;;;;25.52;5.97;;;;;;;10.71;67.73;102769.63;6069205;23;20362;-80
2022/05/08 06:17:58;;;;;;;25.38;5.13;;;;;;;11.03;67.23;102817.72;6069722;23;20014;-84
2022/05/08 06:20:24;;;;;;;25.10;5.55;;;;;;;10.47;67.00;102719.63;6066764;23;20123;-86
2022/05/08 06:22:55;;;;;;;21.85;6.03;;;;;;;9.68;67.10;102575.81;6051769;23;20128;-81
2022/05/08 06:25:52;;;;;;;21.15;4.82;;;;;;;11.22;66.74;102817.09;6096122;23;20017;-82
2022/05/08 06:28:19;;;;;;;22.83;5.20;;;;;;;11.29;66.25;102816.81;6096248;23;20093;-87
2022/05/08 06:30:46;;;;;;;16.92;5.18;;;;;;;11.26;65.37;102787.63;6095814;23;20085;-86
2022/05/08 06:33:11;;;;;;;20.08;5.15;;;;;;;11.31;65.14;102790.94;6095784;23;20006;-85
2022/05/08 06:35:40;;;;;;;19.83;6.18;;;;;;;11.46;65.38;102831.75;6096269;23;20438;-84
2022/05/08 06:38:14;;;;;;;19.90;5.45;;;;;;;11.40;64.81;102800.91;6072126;23;20066;-81
2022/05/08 06:40:40;;;;;;;23.10;5.20;;;;;;;11.55;65.42;102802.13;6095757;23;20544;-84
2022/05/08 06:45:58;;;;;;;20.77;4.95;;;;;;;11.18;62.67;102715.50;6128975;23;20038;-84
2022/05/08 06:48:23;;;;;;;18.67;5.60;;;;;;;11.14;63.31;102693.22;6157442;23;20017;-84
2022/05/08 06:50:51;;;;;;;24.15;5.32;;;;;;;12.10;62.64;102839.00;6156649;23;20025;-83
2022/05/08 06:53:32;;;;;;;19.08;4.88;;;;;;;12.26;63.31;102834.91;6156873;23;20128;-86
2022/05/08 06:55:57;;;;;;;16.23;5.23;;;;;;;12.13;62.33;102774.97;6157274;23;20532;-83
2022/05/08 06:58:24;;;;;;;15.82;4.63;;;;;;;12.60;61.71;102837.91;6157027;23;20241;-85
2022/05/08 07:03:35;;;;;;;18.15;6.40;;;;;;;12.77;61.53;102838.97;6156553;23;20023;-87
2022/05/08 07:06:03;;;;;;;19.85;5.22;;;;;;;13.08;59.86;102831.66;6155246;23;20033;-87
2022/05/08 07:08:37;;;;;;;20.85;4.88;;;;;;;13.27;59.74;102836.06;6156804;23;20006;-86
2022/05/08 07:11:30;;;;;;;20.63;4.90;;;;;;;13.41;59.70;102842.38;6155143;23;20010;-88
2022/05/08 07:14:44;;;;;;;19.38;4.97;;;;;;;12.39;59.63;102630.59;6156852;23;20016;-86
2022/05/08 07:17:12;;;;;;;25.33;6.28;;;;;;;12.94;57.14;102725.03;6037724;23;20086;-86
2022/05/08 07:19:49;;;;;;;18.38;5.53;;;;;;;13.27;58.55;102771.22;6037819;23;20361;-87
2022/05/08 07:22:34;;;;;;;19.15;5.40;;;;;;;13.49;57.97;102780.59;6038103;23;20007;-84
2022/05/08 07:25:08;;;;;;;18.48;5.45;;;;;;;13.65;57.14;102844.81;6038071;23;20438;-82
2022/05/08 07:27:48;;;;;;;21.65;5.43;;;;;;;12.73;58.26;102689.66;6038099;23;20383;-87
2022/05/08 07:30:25;;;;;;;19.70;4.72;;;;;;;13.51;58.54;102848.03;6037873;23;20434;-86
2022/05/08 07:33:09;;;;;;;20.23;5.82;;;;;;;13.39;59.47;102861.53;6037776;23;20090;-87
2022/05/08 07:38:43;;;;;;;23.05;5.90;;;;;;;13.17;59.07;102773.31;5958768;24;20015;-85
2022/05/08 07:41:16;;;;;;;21.55;6.25;;;;;;;13.48;59.40;102850.75;5953579;24;20019;-84
2022/05/08 07:43:45;;;;;;;28.95;6.53;;;;;;;13.28;58.90;102864.56;5953586;24;20004;-82
2022/05/08 07:46:11;;;;;;;19.83;5.55;;;;;;;13.01;59.69;102860.50;5953209;24;20008;-84
2022/05/08 07:48:40;;;;;;;16.83;5.32;;;;;;;11.50;60.32;102628.94;6033122;23;20092;-82
2022/05/08 07:51:11;;;;;;;25.15;6.28;;;;;;;11.84;59.52;102711.38;6156780;23;20332;-87
2022/05/08 07:53:37;;;;;;;21.38;6.75;;;;;;;11.37;59.58;102643.25;6131004;23;20080;-79
2022/05/08 08:15:15;;;;;;;21.58;6.05;;;;;;;12.02;61.02;102795.25;6185767;23;20021;-85
2022/05/08 08:17:53;;;;;;;19.27;5.70;;;;;;;11.78;61.06;102734.84;6159779;23;20001;-83
2022/05/08 08:20:31;;;;;;;14.90;4.82;;;;;;;11.26;58.94;102645.41;6186187;23;20059;-86
2022/05/08 08:26:04;;;;;;;23.23;5.97;;;;;;;11.23;59.12;102640.34;6157036;23;20464;-84
2022/05/08 08:58:40;;;;;;;13.88;4.35;;;;;;;11.93;54.40;102660.97;6155506;23;20446;-85
2022/05/08 09:40:08;;;;;;;13.57;5.07;;;;;;;13.71;53.77;102866.16;6156755;23;20080;-79
2022/05/08 09:42:37;;;;;;;14.10;4.18;;;;;;;13.52;52.81;102820.31;6129436;23;20093;-80
2022/05/08 09:45:07;;;;;;;13.07;4.68;;;;;;;13.77;53.63;102852.94;6157456;23;20068;-81
2022/05/08 09:47:46;;;;;;;14.88;5.03;;;;;;;13.82;52.90;102860.50;6157573;23;20327;-80
2022/05/08 09:50:16;;;;;;;13.05;4.53;;;;;;;13.91;52.57;102870.47;6157675;23;20029;-81
2022/05/08 09:52:43;;;;;;;15.60;4.65;;;;;;;13.52;52.44;102792.59;6157324;23;20002;-81
2022/05/08 09:55:10;;;;;;;15.40;4.57;;;;;;;13.68;53.78;102816.13;6157781;23;20005;-80
2022/05/08 09:57:39;;;;;;;18.02;4.75;;;;;;;13.48;52.43;102781.53;6159486;23;20024;-82
2022/05/08 10:00:11;;;;;;;15.05;3.85;;;;;;;13.55;52.71;102768.25;6133718;23;20021;-80
2022/05/08 10:02:38;;;;;;;13.27;3.42;;;;;;;13.78;51.71;102781.91;6157270;23;20045;-81
2022/05/08 10:05:13;;;;;;;10.90;3.72;;;;;;;12.89;51.75;102624.13;6157837;23;20001;-81
2022/05/08 10:14:36;;;;;;;14.52;4.22;;;;;;;12.83;52.45;102619.19;6159027;23;20036;-79
2022/05/08 10:17:14;;;;;;;13.57;4.07;;;;;;;13.73;51.00;102777.81;6130841;23;20067;-82
2022/05/08 10:19:55;;;;;;;12.85;4.03;;;;;;;13.77;51.53;102781.97;6157579;23;20006;-80
2022/05/08 10:25:52;;;;;;;14.63;3.80;;;;;;;12.74;52.28;102596.25;6156786;23;19909;-80
2022/05/08 10:29:24;;;;;;;13.52;4.00;;;;;;;14.40;52.01;102844.03;6110939;23;20013;-82
2022/05/08 10:35:22;;;;;;;13.23;4.38;;;;;;;13.24;52.26;102616.53;6156941;23;20023;-81
2022/05/08 10:38:16;;;;;;;15.55;4.30;;;;;;;14.67;51.42;102819.34;6157204;23;20029;-79
2022/05/08 10:41:24;;;;;;;11.75;3.85;;;;;;;14.84;52.31;102826.31;6160798;23;20498;-80
2022/05/08 10:44:39;;;;;;;;;;;;;;;;;;;;;
2022/05/08 10:47:44;;;;;;;15.20;4.45;;;;;;;14.76;50.64;102826.69;6081383;23;20084;-79
2022/05/08 10:50:13;;;;;;;13.40;4.00;;;;;;;14.71;50.01;102825.22;6156882;23;20006;-80
2022/05/08 10:52:45;;;;;;;14.88;4.18;;;;;;;14.82;50.78;102817.75;6157132;23;20031;-80
2022/05/08 10:55:15;;;;;;;16.67;4.30;;;;;;;14.72;51.25;102793.09;6156739;23;20005;-79
2022/05/08 10:57:43;;;;;;;12.40;3.85;;;;;;;14.71;50.00;102786.22;6157030;23;20005;-80
2022/05/08 11:00:11;;;;;;;15.10;4.47;;;;;;;14.30;49.77;102711.06;6131243;23;20009;-78
2022/05/08 11:02:41;;;;;;;14.40;5.10;;;;;;;14.80;50.51;102790.97;6156681;23;20006;-79
2022/05/08 11:05:08;;;;;;;14.63;4.70;;;;;;;15.09;51.68;102811.16;6156613;23;20001;-80
2022/05/08 11:07:48;;;;;;;11.90;4.50;;;;;;;14.52;50.78;102703.91;6156787;23;20009;-80
2022/05/08 11:10:44;;;;;;;16.52;4.65;;;;;;;15.25;50.95;102808.63;6129598;23;20010;-80
2022/05/08 11:16:41;;;;;;;15.18;5.10;;;;;;;14.03;49.06;102601.53;6156677;23;20036;-80
2022/05/08 11:22:09;;;;;;;11.50;4.38;;;;;;;15.55;49.86;102811.41;6215294;23;20025;-80
2022/05/08 11:30:35;;;;;;;11.07;4.07;;;;;;;15.35;47.85;102796.00;6156276;23;20343;-79
2022/05/08 11:36:47;;;;;;;13.75;4.35;;;;;;;15.55;48.03;102805.38;6156261;23;20064;-82
2022/05/08 11:39:19;;;;;;;13.73;4.22;;;;;;;14.23;48.18;102585.78;6156483;23;20416;-82
2022/05/08 11:41:57;;;;;;;10.57;4.00;;;;;;;14.39;47.61;102596.25;6156850;23;20080;-82
2022/05/08 11:47:36;;;;;;;15.40;4.25;;;;;;;14.44;47.21;102602.03;6120990;23;20072;-82
2022/05/08 11:50:05;;;;;;;9.30;3.60;;;;;;;14.89;48.09;102637.88;6156142;23;20005;-81
2022/05/08 11:52:31;;;;;;;11.48;3.60;;;;;;;16.00;47.72;102789.06;6156579;23;20438;-82
2022/05/08 11:55:00;;;;;;;11.68;3.83;;;;;;;15.91;45.96;102781.75;6156516;23;20084;-83
2022/05/08 12:00:31;;;;;;;11.75;3.38;;;;;;;14.81;45.28;102581.97;6156397;23;20021;-76
2022/05/08 12:02:56;;;;;;;10.75;3.70;;;;;;;15.95;45.19;102760.66;6156773;23;20424;-81
2022/05/08 12:05:23;;;;;;;11.60;3.38;;;;;;;16.27;47.15;102778.88;6156174;23;20320;-78
2022/05/08 12:07:52;;;;;;;14.38;3.45;;;;;;;15.35;45.43;102643.25;6129778;23;20010;-81
2022/05/08 12:10:18;;;;;;;15.18;4.50;;;;;;;15.00;49.23;102579.25;6129869;23;20323;-84
2022/05/08 12:13:06;;;;;;;11.00;3.38;;;;;;;16.30;46.85;102768.28;6129737;23;20006;-79
2022/05/08 12:15:32;;;;;;;11.10;3.20;;;;;;;15.82;51.14;102667.63;6155959;23;20447;-79
2022/05/08 12:18:13;;;;;;;11.95;3.13;;;;;;;15.14;48.45;102530.75;6105450;23;20001;-79
2022/05/08 12:20:53;;;;;;;7.78;3.03;;;;;;;15.33;48.00;102553.97;6155550;23;20013;-78
2022/05/08 12:23:18;;;;;;;10.02;3.40;;;;;;;16.40;43.76;102725.09;6155976;23;20006;-78
2022/05/08 12:25:48;;;;;;;13.75;3.53;;;;;;;16.18;45.96;102681.19;6156036;23;20081;-78
2022/05/08 12:28:13;;;;;;;10.55;3.42;;;;;;;15.78;44.02;102618.31;6155846;23;20068;-80
2022/05/08 12:30:42;;;;;;;10.52;3.45;;;;;;;16.41;44.83;102721.56;6129690;23;20001;-78
2022/05/08 12:33:07;;;;;;;9.05;3.33;;;;;;;16.79;50.09;102760.28;6156257;23;20008;-79
2022/05/08 12:35:35;;;;;;;13.23;3.63;;;;;;;16.73;46.20;102742.41;6155848;23;20010;-81
2022/05/08 12:38:40;;;;;;;12.30;4.05;;;;;;;16.76;44.55;102752.63;5090448;27;20384;-78
2022/05/08 12:41:05;;;;;;;11.90;3.90;;;;;;;16.87;48.29;102745.84;5090513;28;20028;-80
2022/05/08 12:43:31;;;;;;;7.47;3.00;;;;;;;17.00;51.59;102745.13;5090599;28;20103;-79
2022/05/08 12:45:56;;;;;;;7.95;3.55;;;;;;;16.06;43.64;102617.56;5090471;28;20051;-79
2022/05/08 12:48:24;;;;;;;10.02;3.40;;;;;;;16.01;44.24;102598.75;5090891;28;20460;-78
2022/05/08 12:50:59;;;;;;;10.57;3.10;;;;;;;16.81;45.48;102712.31;5090371;28;20428;-79
2022/05/08 12:53:42;;;;;;;9.23;3.17;;;;;;;17.07;44.09;102749.06;5072043;28;20025;-80
2022/05/08 12:56:08;;;;;;;7.40;3.25;;;;;;;16.83;45.13;102696.56;5090087;28;20056;-80
2022/05/08 13:01:17;;;;;;;9.10;2.90;;;;;;;17.23;45.61;102744.59;5089259;28;20043;-76
2022/05/08 13:03:46;;;;;;;13.32;3.47;;;;;;;17.27;44.86;102748.69;5089915;28;20085;-79
2022/05/08 13:06:11;;;;;;;9.05;3.20;;;;;;;17.36;44.53;102750.75;5089851;28;20522;-80
2022/05/08 13:08:37;;;;;;;10.85;3.55;;;;;;;17.23;42.86;102744.59;5089796;28;20110;-78
2022/05/08 13:11:02;;;;;;;9.77;3.30;;;;;;;17.14;41.16;102735.53;5089918;28;20025;-79
2022/05/08 13:13:31;;;;;;;12.30;3.33;;;;;;;17.15;42.07;102736.38;5090017;28;20028;-79
2022/05/08 13:15:57;;;;;;;9.43;2.90;;;;;;;16.85;41.96;102685.09;5090001;28;20027;-80
2022/05/08 13:18:23;;;;;;;10.15;3.08;;;;;;;17.26;42.12;102736.56;5089697;28;20480;-79
2022/05/08 13:20:48;;;;;;;10.52;3.42;;;;;;;16.70;41.38;102639.03;5071811;28;20028;-79
2022/05/08 13:23:29;;;;;;;11.10;3.35;;;;;;;16.52;43.78;102606.22;5089481;28;20035;-79
2022/05/08 13:26:16;;;;;;;10.05;3.33;;;;;;;17.30;42.98;102719.75;5088711;28;20130;-79
2022/05/08 14:04:50;;;;;;;8.45;2.75;;;;;;;17.16;41.48;102637.06;4900183;28;20528;-80
2022/05/08 14:10:38;;;;;;;8.75;2.80;;;;;;;16.65;40.92;102531.50;4898366;29;20054;-79
2022/05/08 14:13:09;;;;;;;13.88;2.60;;;;;;;16.83;41.30;102548.66;4898359;29;20457;-78
2022/05/08 14:16:09;;;;;;;8.48;2.83;;;;;;;17.68;41.49;102677.34;4898277;29;20041;-79
2022/05/08 14:18:43;;;;;;;10.10;3.08;;;;;;;16.90;41.84;102567.38;4881939;29;20029;-78
2022/05/08 14:21:39;;;;;;;8.45;3.30;;;;;;;17.66;42.07;102680.06;4897871;29;20516;-78
2022/05/08 14:24:22;;;;;;;9.25;3.13;;;;;;;17.70;40.99;102683.38;4897614;29;20047;-79
2022/05/08 14:26:50;;;;;;;10.85;2.90;;;;;;;16.83;42.12;102535.63;4897669;29;20549;-79
2022/05/08 14:29:28;;;;;;;10.68;3.00;;;;;;;17.31;41.12;102622.25;4898071;29;20123;-79
2022/05/08 14:37:27;;;;;;;9.27;2.80;;;;;;;16.67;43.12;102476.63;4897715;29;20103;-79
2022/05/08 14:40:11;;;;;;;7.00;2.75;;;;;;;16.80;41.65;102472.34;4897578;29;20028;-79
2022/05/08 14:42:36;;;;;;;10.23;2.78;;;;;;;17.75;39.91;102621.19;4956746;29;20061;-79
2022/05/08 14:45:08;;;;;;;7.65;2.15;;;;;;;16.94;38.91;102480.16;4981076;23;20078;-78
2022/05/08 14:47:34;;;;;;;5.95;2.13;;;;;;;17.96;39.21;102653.78;4958488;28;20042;-79
2022/05/08 14:50:12;;;;;;;6.07;2.20;;;;;;;17.88;38.54;102631.69;4975896;28;20058;-79
2022/05/08 14:52:37;;;;;;;9.80;2.60;;;;;;;17.88;37.37;102644.75;4975922;28;20035;-79
2022/05/08 14:55:38;;;;;;;8.25;2.55;;;;;;;17.91;40.15;102653.25;4975850;28;20034;-79
2022/05/08 14:58:04;;;;;;;8.07;2.72;;;;;;;16.94;38.53;102495.81;4976130;28;20179;-79
2022/05/08 15:00:48;;;;;;;7.30;2.35;;;;;;;17.23;37.98;102548.78;4975097;28;20033;-78
2022/05/08 15:03:13;;;;;;;8.00;2.47;;;;;;;17.75;39.42;102653.38;4975714;28;20109;-80
2022/05/08 15:05:44;;;;;;;6.65;2.72;;;;;;;17.67;39.63;102628.66;4975689;28;20062;-79
2022/05/08 15:08:13;;;;;;;7.57;2.47;;;;;;;17.69;38.83;102619.81;4975527;28;20034;-78
2022/05/08 15:10:38;;;;;;;6.95;2.30;;;;;;;17.72;38.62;102603.13;4975582;28;20114;-80
2022/05/08 15:13:04;;;;;;;5.95;2.00;;;;;;;17.87;38.33;102633.47;4975617;28;20444;-80
2022/05/08 15:15:29;;;;;;;5.47;1.80;;;;;;;17.81;37.97;102633.03;4975719;28;20031;-81
2022/05/08 15:20:41;;;;;;;7.45;2.45;;;;;;;17.65;40.03;102597.41;4976285;28;20045;-81
2022/05/08 15:23:08;;;;;;;4.70;2.03;;;;;;;17.80;37.84;102629.59;4975882;28;20031;-80
2022/05/08 15:25:34;;;;;;;8.30;2.15;;;;;;;17.88;38.55;102629.91;4975160;28;20046;-79
2022/05/08 15:28:00;;;;;;;6.93;2.17;;;;;;;17.86;38.81;102626.56;4957651;28;20045;-79
2022/05/08 15:30:49;;;;;;;8.30;2.72;;;;;;;16.98;38.08;102499.88;4952693;28;20114;-79
2022/05/08 15:33:11;;;;;;;6.45;2.50;;;;;;;17.77;38.98;102614.09;4952384;28;20091;-78
2022/05/08 15:35:57;;;;;;;8.50;2.72;;;;;;;17.80;38.47;102620.88;4954026;28;20039;-79
2022/05/08 15:41:06;;;;;;;8.98;2.50;;;;;;;17.40;38.25;102553.75;5183367;23;20146;-79
2022/05/08 15:43:33;;;;;;;8.70;2.28;;;;;;;17.65;38.23;102591.34;4955627;29;20519;-79
2022/05/08 15:55:26;;;;;;;9.30;3.00;;;;;;;17.70;39.10;102615.44;4974879;28;20541;-80
2022/05/08 15:57:55;;;;;;;7.75;2.40;;;;;;;17.62;38.86;102602.84;4974117;28;20046;-80
2022/05/08 16:00:33;;;;;;;8.00;2.35;;;;;;;16.58;39.37;102433.69;4974788;28;20030;-79
2022/05/08 16:03:05;;;;;;;7.65;2.47;;;;;;;16.42;38.30;102410.38;4974810;28;20027;-79
2022/05/08 16:05:36;;;;;;;6.20;2.53;;;;;;;16.53;38.49;102425.34;4974628;28;20027;-79
2022/05/08 16:08:02;;;;;;;6.93;2.17;;;;;;;17.17;38.64;102528.28;4974729;28;20035;-78
2022/05/08 16:10:30;;;;;;;10.00;3.47;;;;;;;17.08;40.26;102497.53;4974494;28;20483;-80
2022/05/08 16:28:41;;;;;;;8.50;2.53;;;;;;;17.66;39.72;102603.47;4974740;28;20046;-81
2022/05/08 16:34:45;;;;;;;8.70;2.50;;;;;;;16.67;39.06;102456.59;4934041;29;20063;-80
2022/05/08 16:40:35;;;;;;;9.25;2.80;;;;;;;16.32;38.75;102414.44;4933469;29;20472;-78
2022/05/08 16:43:00;;;;;;;8.32;2.75;;;;;;;17.03;38.93;102518.72;4933750;29;20361;-77
2022/05/08 16:45:29;;;;;;;8.95;2.17;;;;;;;17.49;39.38;102592.31;4933601;29;20035;-78
2022/05/08 16:47:55;;;;;;;6.65;2.22;;;;;;;17.49;38.32;102599.31;4933666;29;20127;-81
2022/05/08 16:50:22;;;;;;;8.07;2.50;;;;;;;17.32;38.69;102573.47;4933384;29;20406;-80
2022/05/08 16:52:48;;;;;;;6.43;2.42;;;;;;;17.14;38.79;102554.56;4933633;29;20032;-80
2022/05/08 16:55:19;;;;;;;4.68;2.30;;;;;;;17.23;38.00;102567.06;4917249;29;20055;-80
2022/05/08 16:57:45;;;;;;;9.65;2.30;;;;;;;17.45;38.40;102597.84;4968332;23;20137;-80
2022/05/08 17:00:13;;;;;;;7.78;2.45;;;;;;;17.12;38.29;102552.06;4956431;28;20146;-81
2022/05/08 17:02:39;;;;;;;8.18;2.30;;;;;;;17.16;38.75;102558.75;4973938;28;20027;-79
2022/05/08 17:05:04;;;;;;;9.15;2.20;;;;;;;17.40;38.66;102603.38;4974061;28;20483;-80
2022/05/08 17:07:30;;;;;;;5.57;2.20;;;;;;;17.33;38.47;102602.09;4973713;28;20390;-80
2022/05/08 17:09:56;;;;;;;6.43;2.30;;;;;;;17.38;38.66;102610.44;4981354;23;20027;-80
2022/05/08 17:12:21;;;;;;;7.50;2.50;;;;;;;17.20;37.86;102588.09;4917785;29;20075;-79
2022/05/08 17:14:47;;;;;;;9.00;2.60;;;;;;;17.31;38.16;102608.34;4935325;29;20035;-80
2022/05/08 17:17:12;;;;;;;7.50;2.65;;;;;;;17.18;38.49;102593.44;4935249;29;20063;-80
2022/05/08 17:19:38;;;;;;;9.05;2.58;;;;;;;17.08;37.82;102578.44;4935343;29;20032;-80
2022/05/08 17:22:08;;;;;;;8.45;2.70;;;;;;;17.26;39.36;102611.22;4935465;29;20028;-80
2022/05/08 17:24:33;;;;;;;7.25;2.55;;;;;;;17.09;38.54;102583.56;4938261;29;20020;-80
2022/05/08 17:29:46;;;;;;;6.75;2.60;;;;;;;17.00;36.96;102585.91;4939105;29;20058;-81
2022/05/08 17:32:17;;;;;;;7.43;2.33;;;;;;;16.88;38.49;102580.53;4939162;29;20122;-81
2022/05/08 17:34:43;;;;;;;6.00;1.98;;;;;;;17.07;38.41;102610.72;4938765;29;20036;-80
2022/05/08 17:57:57;;;;;;;8.85;2.55;;;;;;;16.10;37.79;102534.00;5204105;23;20051;-80
2022/05/08 18:00:59;;;;;;;7.40;2.50;;;;;;;16.52;38.48;102620.09;4973214;28;20046;-81
2022/05/08 18:21:14;;;;;;;7.78;2.38;;;;;;;15.75;40.89;102620.25;5031413;24;20111;-80
2022/05/08 18:24:22;;;;;;;8.65;2.78;;;;;;;15.64;41.52;102614.81;4846130;29;20486;-79
2022/05/08 18:27:33;;;;;;;6.70;2.30;;;;;;;15.53;41.44;102627.53;4782375;24;20408;31
2022/05/08 18:30:37;;;;;;;6.03;2.10;;;;;;;15.36;41.90;102626.69;5119307;24;20076;-80
2022/05/08 18:33:08;;;;;;;7.05;2.20;;;;;;;14.36;42.25;102487.25;4845833;29;20402;-80